Coila, Mississippi
Current Conditions -  °F | °C
As of 12:07 PM on Monday 26 Jan 2015 (Local Time) from KGWO Reporting Station
Scattered Clouds Scattered Clouds  
Wind Chill: 39°   Ceiling: Unl
Heat Index: 45°   Visibility: 10mi
Dew Point: 32°   Wind: 12mph
Humidity: 60%   Direction: 310°NW
Pressure: 30.14"   Gusts: NA
Location:  33.4°N, 89.97°W
Report Text: KGWO 261807Z AUTO 31010KT 10SM SCT027 07/00 A3014 RMK AO2 T00720000
Loading
Personal Weather Stations






























Interactive Weather Map New forecast layout! Learn more

10-Day Weather Forecast

Advertisements
Track Severe Weather on mobile